createdAt,value
2017-12-13T00:04:44.208Z,1.70
2017-12-13T00:09:45.724Z,1.70
2017-12-13T00:14:47.225Z,1.70
2017-12-13T00:19:48.769Z,1.80
2017-12-13T00:24:50.303Z,1.90
2017-12-13T00:29:51.877Z,1.90
2017-12-13T00:34:53.388Z,1.90
2017-12-13T00:39:54.893Z,1.90
2017-12-13T00:44:57.126Z,2.10
2017-12-13T00:49:58.630Z,2.00
2017-12-13T00:55:00.188Z,2.00
2017-12-13T01:00:01.761Z,1.90
2017-12-13T01:05:03.275Z,2.00
2017-12-13T01:10:04.769Z,2.10
2017-12-13T01:15:06.272Z,2.10
2017-12-13T01:20:07.787Z,2.20
2017-12-13T01:25:09.268Z,2.20
2017-12-13T01:30:10.766Z,2.20
2017-12-13T01:35:12.301Z,2.20
2017-12-13T01:40:14.477Z,2.10
2017-12-13T01:45:15.985Z,2.20
2017-12-13T01:50:17.513Z,2.10
2017-12-13T01:55:19.017Z,2.00
2017-12-13T02:00:20.508Z,1.90
2017-12-13T02:05:22.005Z,1.80
2017-12-13T02:10:23.502Z,1.70
2017-12-13T02:15:25.037Z,1.50
2017-12-13T02:20:26.604Z,1.50
2017-12-13T02:25:28.118Z,1.40
2017-12-13T02:30:29.641Z,1.30
2017-12-13T02:35:31.149Z,1.30
2017-12-13T02:40:51.009Z,1.30
2017-12-13T02:45:59.364Z,1.20
2017-12-13T02:51:00.856Z,1.20
2017-12-13T02:56:03.177Z,1.50
2017-12-13T03:01:04.705Z,1.50
2017-12-13T03:06:06.167Z,1.70
2017-12-13T03:11:07.670Z,1.70
2017-12-13T03:16:09.168Z,1.60
2017-12-13T03:21:10.693Z,1.50
2017-12-13T03:26:12.938Z,1.50
2017-12-13T03:31:14.456Z,1.50
2017-12-13T03:36:15.976Z,1.60
2017-12-13T03:41:17.543Z,1.80
2017-12-13T03:46:19.101Z,1.80
2017-12-13T03:51:20.622Z,1.90
2017-12-13T03:56:22.202Z,1.90
2017-12-13T04:01:23.726Z,2.00
2017-12-13T04:06:25.222Z,2.10
2017-12-13T04:11:26.727Z,2.20
2017-12-13T04:16:28.369Z,2.30
2017-12-13T04:21:30.261Z,2.20
2017-12-13T04:26:31.863Z,2.30
2017-12-13T04:31:33.663Z,2.30
2017-12-13T04:36:35.202Z,2.30
2017-12-13T04:41:36.941Z,2.30
2017-12-13T04:46:38.970Z,2.30
2017-12-13T04:51:41.412Z,2.40
2017-12-13T04:56:42.949Z,2.30
2017-12-13T05:01:45.198Z,2.40
2017-12-13T05:06:46.864Z,2.40
2017-12-13T05:11:48.393Z,2.50
2017-12-13T05:16:49.954Z,2.50
2017-12-13T05:21:51.491Z,2.60
2017-12-13T05:26:53.744Z,2.60
2017-12-13T05:31:55.282Z,2.50
2017-12-13T05:36:56.786Z,2.60
2017-12-13T05:41:58.286Z,2.60
2017-12-13T05:47:00.520Z,2.60
2017-12-13T05:52:02.047Z,2.50
2017-12-13T05:57:03.658Z,2.60
2017-12-13T06:02:05.172Z,2.60
2017-12-13T06:07:07.398Z,2.60
2017-12-13T06:12:08.904Z,2.50
2017-12-13T06:17:10.550Z,2.50
2017-12-13T06:22:12.066Z,2.50
2017-12-13T06:27:14.319Z,2.30
2017-12-13T06:32:22.818Z,2.30
2017-12-13T06:37:24.361Z,2.30
2017-12-13T06:42:25.868Z,2.30
2017-12-13T06:47:27.392Z,2.30
2017-12-13T06:52:28.859Z,2.20
2017-12-13T06:57:30.497Z,2.30
2017-12-13T07:02:32.007Z,2.30
2017-12-13T07:07:33.486Z,2.30
2017-12-13T07:12:35.036Z,2.30
2017-12-13T07:17:36.521Z,2.30
2017-12-13T07:22:38.864Z,2.40
2017-12-13T07:27:41.099Z,2.60
2017-12-13T07:32:42.634Z,2.60
2017-12-13T07:37:44.157Z,2.50
2017-12-13T07:42:45.727Z,2.50
2017-12-13T07:47:47.206Z,2.50
2017-12-13T07:52:49.448Z,2.60
2017-12-13T07:57:50.909Z,2.60
2017-12-13T08:02:52.431Z,2.70
2017-12-13T08:07:54.712Z,2.70
2017-12-13T08:12:57.025Z,2.70
2017-12-13T08:17:58.559Z,2.70
2017-12-13T08:23:00.820Z,2.70
2017-12-13T08:28:02.376Z,2.70
2017-12-13T08:33:03.896Z,3.00
2017-12-13T08:38:05.498Z,3.10
2017-12-13T08:43:07.061Z,3.40
2017-12-13T08:48:08.569Z,3.50
2017-12-13T08:53:10.098Z,3.60
2017-12-13T08:58:11.635Z,3.80
2017-12-13T09:03:20.938Z,3.80
2017-12-13T09:08:22.378Z,3.70
2017-12-13T09:13:23.920Z,3.80
2017-12-13T09:18:25.417Z,3.80
2017-12-13T09:23:26.949Z,3.90
2017-12-13T09:28:29.183Z,3.90
2017-12-13T09:33:30.746Z,3.80
2017-12-13T09:38:32.285Z,4.10
2017-12-13T09:43:33.769Z,4.30
2017-12-13T09:48:35.256Z,4.30
2017-12-13T09:53:36.854Z,4.30
2017-12-13T09:58:39.105Z,4.40
2017-12-13T10:03:40.691Z,4.30
2017-12-13T10:08:42.191Z,4.50
2017-12-13T10:13:43.737Z,4.50
2017-12-13T10:18:45.280Z,4.50
2017-12-13T10:23:46.816Z,4.60
2017-12-13T10:28:55.328Z,4.90
2017-12-13T10:33:57.574Z,5.20
2017-12-13T10:38:59.073Z,5.10
2017-12-13T10:44:00.605Z,5.20
2017-12-13T10:49:02.086Z,5.20
2017-12-13T10:54:03.623Z,5.20
2017-12-13T10:59:05.154Z,5.10
2017-12-13T11:04:06.641Z,5.10
2017-12-13T11:09:08.154Z,5.20
2017-12-13T11:14:09.638Z,5.30
2017-12-13T11:19:11.909Z,5.20
2017-12-13T11:24:14.152Z,5.20
2017-12-13T11:29:15.671Z,5.20
2017-12-13T11:34:17.946Z,5.30
2017-12-13T11:39:20.220Z,5.20
2017-12-13T11:44:21.794Z,5.20
2017-12-13T11:49:24.063Z,5.30
2017-12-13T11:54:31.577Z,5.20
2017-12-13T11:59:33.044Z,5.20
2017-12-13T12:04:34.561Z,5.00
2017-12-13T12:09:36.108Z,4.90
2017-12-13T12:14:38.573Z,4.70
2017-12-13T12:19:40.134Z,4.60
2017-12-13T12:24:41.667Z,4.50
2017-12-13T12:29:43.186Z,4.50
2017-12-13T12:34:45.446Z,4.40
2017-12-13T12:39:46.980Z,4.30
2017-12-13T12:44:48.509Z,4.30
2017-12-13T12:49:50.819Z,4.20
2017-12-13T12:54:52.372Z,4.20
2017-12-13T12:59:53.901Z,4.30
2017-12-13T13:04:55.445Z,4.30
2017-12-13T13:09:57.020Z,4.20
2017-12-13T13:14:58.520Z,4.10
2017-12-13T13:20:07.680Z,3.90
2017-12-13T13:25:09.972Z,3.70
2017-12-13T13:30:11.630Z,3.70
2017-12-13T13:35:20.929Z,3.50
2017-12-13T13:40:22.461Z,3.50
2017-12-13T13:45:24.000Z,3.50
2017-12-13T13:50:26.237Z,3.60
2017-12-13T13:55:27.772Z,3.50
2017-12-13T14:00:29.311Z,3.50
2017-12-13T14:05:30.865Z,3.60
2017-12-13T14:10:32.351Z,3.60
2017-12-13T14:15:33.969Z,3.60
2017-12-13T14:20:35.497Z,3.60
2017-12-13T14:25:37.774Z,3.50
2017-12-13T14:30:40.062Z,3.50
2017-12-13T14:35:42.336Z,3.30
2017-12-13T14:40:43.903Z,3.30
2017-12-13T14:45:45.463Z,3.20
2017-12-13T14:50:46.980Z,3.20
2017-12-13T14:55:48.512Z,3.10
2017-12-13T15:00:50.022Z,3.10
2017-12-13T15:05:51.545Z,3.00
2017-12-13T15:10:53.068Z,3.10
2017-12-13T15:15:54.634Z,3.00
2017-12-13T15:20:56.191Z,2.90
2017-12-13T15:25:57.756Z,2.80
2017-12-13T15:30:59.287Z,2.70
2017-12-13T15:36:01.536Z,2.60
2017-12-13T15:41:03.227Z,2.60
2017-12-13T15:46:04.837Z,2.60
2017-12-13T15:51:06.350Z,2.60
2017-12-13T15:56:07.875Z,2.60
2017-12-13T16:01:09.491Z,2.60
2017-12-13T16:06:11.057Z,2.70
2017-12-13T16:11:12.604Z,2.90
2017-12-13T16:16:14.207Z,2.80
2017-12-13T16:21:15.707Z,2.90
2017-12-13T16:26:17.297Z,2.90
2017-12-13T16:31:18.940Z,2.80
2017-12-13T16:36:20.457Z,2.80
2017-12-13T16:41:22.061Z,2.80
2017-12-13T16:46:24.406Z,2.80
2017-12-13T16:51:25.925Z,2.80
2017-12-13T16:56:27.483Z,2.90
2017-12-13T17:01:29.730Z,3.00
2017-12-13T17:06:31.259Z,2.90
2017-12-13T17:11:32.831Z,3.00
2017-12-13T17:16:34.334Z,3.10
2017-12-13T17:21:35.836Z,3.20
2017-12-13T17:26:38.125Z,3.20
2017-12-13T17:31:39.659Z,3.20
2017-12-13T17:36:41.208Z,3.20
2017-12-13T17:41:42.757Z,3.20
2017-12-13T17:46:44.266Z,3.20
2017-12-13T17:51:45.747Z,3.30
2017-12-13T17:56:48.078Z,3.40
2017-12-13T18:01:49.641Z,3.40
2017-12-13T18:06:51.217Z,3.40
2017-12-13T18:11:52.733Z,3.40
2017-12-13T18:16:55.546Z,3.40
2017-12-13T18:21:57.183Z,3.40
2017-12-13T18:26:58.748Z,3.50
2017-12-13T18:32:00.305Z,3.60
2017-12-13T18:37:01.761Z,3.60
2017-12-13T18:42:03.199Z,3.60
2017-12-13T18:47:04.635Z,3.70
2017-12-13T18:52:06.938Z,3.80
2017-12-13T18:57:08.500Z,3.70
2017-12-13T19:02:10.790Z,3.90
2017-12-13T19:07:12.323Z,3.80
2017-12-13T19:12:13.907Z,3.90
2017-12-13T19:17:16.215Z,4.10
2017-12-13T19:22:17.716Z,4.00
2017-12-13T19:27:19.208Z,4.10
2017-12-13T19:32:20.674Z,4.10
2017-12-13T19:37:22.290Z,4.10
2017-12-13T19:42:23.739Z,4.10
2017-12-13T19:47:25.365Z,4.10
2017-12-13T19:52:26.943Z,4.10
2017-12-13T19:57:28.485Z,4.30
2017-12-13T20:02:30.187Z,4.30
2017-12-13T20:07:31.730Z,4.50
2017-12-13T20:12:33.272Z,4.50
2017-12-13T20:17:34.886Z,4.60
2017-12-13T20:22:36.465Z,4.70
2017-12-13T20:27:37.992Z,4.80
2017-12-13T20:32:39.537Z,4.70
2017-12-13T20:37:41.002Z,4.90
2017-12-13T20:42:42.623Z,4.90
2017-12-13T20:47:44.138Z,5.00
2017-12-13T20:52:45.721Z,5.00
2017-12-13T20:57:47.298Z,5.00
2017-12-13T21:02:48.836Z,5.00
2017-12-13T21:07:50.379Z,5.10
2017-12-13T21:12:51.933Z,5.10
2017-12-13T21:17:53.494Z,5.10
2017-12-13T21:22:55.103Z,5.10
2017-12-13T21:27:57.340Z,5.20
2017-12-13T21:32:58.881Z,5.10
2017-12-13T21:38:00.339Z,5.20
2017-12-13T21:43:01.924Z,5.20
2017-12-13T21:48:03.449Z,5.20
2017-12-13T21:53:05.726Z,5.20
2017-12-13T21:58:07.954Z,5.20
2017-12-13T22:03:09.588Z,5.10
2017-12-13T22:08:11.818Z,5.20
2017-12-13T22:13:13.367Z,5.10
2017-12-13T22:18:14.896Z,5.20
2017-12-13T22:23:17.149Z,5.20
2017-12-13T22:28:19.512Z,5.20
2017-12-13T22:33:21.006Z,5.10
2017-12-13T22:38:22.510Z,5.20
2017-12-13T22:43:24.733Z,5.30
2017-12-13T22:48:26.224Z,5.10
2017-12-13T22:53:27.836Z,5.20
2017-12-13T22:58:29.401Z,5.20
2017-12-13T23:03:31.677Z,5.30
2017-12-13T23:08:33.331Z,5.20
2017-12-13T23:13:34.837Z,5.30
2017-12-13T23:18:36.326Z,5.30
2017-12-13T23:23:37.854Z,5.30
2017-12-13T23:28:40.149Z,5.20
2017-12-13T23:33:42.403Z,5.30
2017-12-13T23:38:43.949Z,5.20
2017-12-13T23:43:45.481Z,5.30
2017-12-13T23:48:46.988Z,5.30
2017-12-13T23:53:48.508Z,5.30
2017-12-13T23:58:50.804Z,5.40
